sensor_id;sensor_type;location;lat;lon;timestamp;P1;durP1;ratioP1;P2;durP2;ratioP2
4808;SDS011;2418;49.930;8.606;2023-12-20T00:01:38;5.25;;;4.85;;
4808;SDS011;2418;49.930;8.606;2023-12-20T00:04:05;6.60;;;5.10;;
4808;SDS011;2418;49.930;8.606;2023-12-20T00:06:31;5.27;;;4.83;;
4808;SDS011;2418;49.930;8.606;2023-12-20T00:08:57;4.97;;;4.68;;
4808;SDS011;2418;49.930;8.606;2023-12-20T00:11:23;5.30;;;4.60;;
4808;SDS011;2418;49.930;8.606;2023-12-20T00:13:49;5.32;;;5.03;;
4808;SDS011;2418;49.930;8.606;2023-12-20T00:16:14;5.90;;;5.40;;
4808;SDS011;2418;49.930;8.606;2023-12-20T00:18:40;4.93;;;4.53;;
4808;SDS011;2418;49.930;8.606;2023-12-20T00:21:06;4.97;;;4.50;;
4808;SDS011;2418;49.930;8.606;2023-12-20T00:23:32;5.23;;;4.83;;
4808;SDS011;2418;49.930;8.606;2023-12-20T00:25:58;5.40;;;5.00;;
4808;SDS011;2418;49.930;8.606;2023-12-20T00:28:24;4.67;;;4.40;;
4808;SDS011;2418;49.930;8.606;2023-12-20T00:30:50;4.97;;;4.63;;
4808;SDS011;2418;49.930;8.606;2023-12-20T00:33:16;4.88;;;4.57;;
4808;SDS011;2418;49.930;8.606;2023-12-20T00:35:42;5.13;;;4.65;;
4808;SDS011;2418;49.930;8.606;2023-12-20T00:38:08;5.32;;;4.53;;
4808;SDS011;2418;49.930;8.606;2023-12-20T00:40:35;4.50;;;4.30;;
4808;SDS011;2418;49.930;8.606;2023-12-20T00:43:01;4.00;;;3.80;;
4808;SDS011;2418;49.930;8.606;2023-12-20T00:45:27;4.15;;;4.00;;
4808;SDS011;2418;49.930;8.606;2023-12-20T00:47:53;3.70;;;3.60;;
4808;SDS011;2418;49.930;8.606;2023-12-20T00:50:19;3.78;;;3.47;;
4808;SDS011;2418;49.930;8.606;2023-12-20T00:52:48;4.60;;;4.20;;
4808;SDS011;2418;49.930;8.606;2023-12-20T00:55:14;3.97;;;3.70;;
4808;SDS011;2418;49.930;8.606;2023-12-20T00:57:39;4.00;;;3.70;;
4808;SDS011;2418;49.930;8.606;2023-12-20T01:00:05;3.15;;;3.05;;
4808;SDS011;2418;49.930;8.606;2023-12-20T01:02:34;3.92;;;3.20;;
4808;SDS011;2418;49.930;8.606;2023-12-20T01:05:00;3.40;;;3.20;;
4808;SDS011;2418;49.930;8.606;2023-12-20T01:07:26;3.50;;;3.30;;
4808;SDS011;2418;49.930;8.606;2023-12-20T01:09:52;3.80;;;3.60;;
4808;SDS011;2418;49.930;8.606;2023-12-20T01:12:18;3.38;;;3.17;;
4808;SDS011;2418;49.930;8.606;2023-12-20T01:14:45;3.60;;;3.40;;
4808;SDS011;2418;49.930;8.606;2023-12-20T01:17:11;3.60;;;3.50;;
4808;SDS011;2418;49.930;8.606;2023-12-20T01:19:37;4.80;;;3.60;;
4808;SDS011;2418;49.930;8.606;2023-12-20T01:22:03;3.45;;;3.25;;
4808;SDS011;2418;49.930;8.606;2023-12-20T01:24:29;3.40;;;3.30;;
4808;SDS011;2418;49.930;8.606;2023-12-20T01:26:57;3.25;;;3.15;;
4808;SDS011;2418;49.930;8.606;2023-12-20T01:29:24;6.00;;;4.43;;
4808;SDS011;2418;49.930;8.606;2023-12-20T01:31:50;3.33;;;3.22;;
4808;SDS011;2418;49.930;8.606;2023-12-20T01:34:16;3.72;;;3.55;;
4808;SDS011;2418;49.930;8.606;2023-12-20T01:36:42;3.67;;;3.47;;
4808;SDS011;2418;49.930;8.606;2023-12-20T01:39:08;3.97;;;3.88;;
4808;SDS011;2418;49.930;8.606;2023-12-20T01:41:34;3.58;;;3.47;;
4808;SDS011;2418;49.930;8.606;2023-12-20T01:44:00;3.88;;;3.70;;
4808;SDS011;2418;49.930;8.606;2023-12-20T01:46:26;3.60;;;3.30;;
4808;SDS011;2418;49.930;8.606;2023-12-20T01:48:52;3.60;;;3.50;;
4808;SDS011;2418;49.930;8.606;2023-12-20T01:51:19;3.70;;;3.50;;
4808;SDS011;2418;49.930;8.606;2023-12-20T01:53:46;3.60;;;3.40;;
4808;SDS011;2418;49.930;8.606;2023-12-20T01:56:12;3.78;;;3.67;;
4808;SDS011;2418;49.930;8.606;2023-12-20T01:58:45;3.38;;;3.28;;
4808;SDS011;2418;49.930;8.606;2023-12-20T02:01:12;3.67;;;3.47;;
4808;SDS011;2418;49.930;8.606;2023-12-20T02:03:39;3.20;;;3.10;;
4808;SDS011;2418;49.930;8.606;2023-12-20T02:06:05;3.20;;;3.10;;
4808;SDS011;2418;49.930;8.606;2023-12-20T02:08:31;3.38;;;3.20;;
4808;SDS011;2418;49.930;8.606;2023-12-20T02:10:57;3.80;;;3.60;;
4808;SDS011;2418;49.930;8.606;2023-12-20T02:13:23;3.28;;;3.10;;
4808;SDS011;2418;49.930;8.606;2023-12-20T02:15:50;4.07;;;3.20;;
4808;SDS011;2418;49.930;8.606;2023-12-20T02:18:16;3.28;;;3.08;;
4808;SDS011;2418;49.930;8.606;2023-12-20T02:20:42;3.40;;;3.30;;
4808;SDS011;2418;49.930;8.606;2023-12-20T02:23:08;3.65;;;3.45;;
4808;SDS011;2418;49.930;8.606;2023-12-20T02:25:34;3.20;;;3.10;;
4808;SDS011;2418;49.930;8.606;2023-12-20T02:28:00;2.92;;;2.80;;
4808;SDS011;2418;49.930;8.606;2023-12-20T02:30:26;3.67;;;3.40;;
4808;SDS011;2418;49.930;8.606;2023-12-20T02:32:52;3.30;;;3.20;;
4808;SDS011;2418;49.930;8.606;2023-12-20T02:35:19;3.20;;;3.10;;
4808;SDS011;2418;49.930;8.606;2023-12-20T02:37:45;3.10;;;3.00;;
4808;SDS011;2418;49.930;8.606;2023-12-20T02:40:11;4.10;;;3.90;;
4808;SDS011;2418;49.930;8.606;2023-12-20T02:42:37;3.47;;;3.30;;
4808;SDS011;2418;49.930;8.606;2023-12-20T02:45:03;3.20;;;3.10;;
4808;SDS011;2418;49.930;8.606;2023-12-20T02:47:29;3.50;;;3.40;;
4808;SDS011;2418;49.930;8.606;2023-12-20T02:49:55;3.50;;;3.20;;
4808;SDS011;2418;49.930;8.606;2023-12-20T02:52:22;3.08;;;2.97;;
4808;SDS011;2418;49.930;8.606;2023-12-20T02:54:48;3.95;;;3.85;;
4808;SDS011;2418;49.930;8.606;2023-12-20T02:57:14;3.60;;;3.10;;
4808;SDS011;2418;49.930;8.606;2023-12-20T02:59:40;3.38;;;3.28;;
4808;SDS011;2418;49.930;8.606;2023-12-20T03:02:06;3.15;;;3.05;;
4808;SDS011;2418;49.930;8.606;2023-12-20T03:04:32;4.18;;;3.97;;
4808;SDS011;2418;49.930;8.606;2023-12-20T03:06:58;3.40;;;3.20;;
4808;SDS011;2418;49.930;8.606;2023-12-20T03:09:24;2.80;;;2.70;;
4808;SDS011;2418;49.930;8.606;2023-12-20T03:11:50;3.00;;;2.90;;
4808;SDS011;2418;49.930;8.606;2023-12-20T03:14:16;3.20;;;3.00;;
4808;SDS011;2418;49.930;8.606;2023-12-20T03:16:46;3.00;;;2.90;;
4808;SDS011;2418;49.930;8.606;2023-12-20T03:19:12;3.20;;;3.10;;
4808;SDS011;2418;49.930;8.606;2023-12-20T03:21:38;3.10;;;3.00;;
4808;SDS011;2418;49.930;8.606;2023-12-20T03:24:04;2.90;;;2.70;;
4808;SDS011;2418;49.930;8.606;2023-12-20T03:26:30;3.08;;;2.90;;
4808;SDS011;2418;49.930;8.606;2023-12-20T03:28:56;2.90;;;2.80;;
4808;SDS011;2418;49.930;8.606;2023-12-20T03:31:22;3.40;;;3.20;;
4808;SDS011;2418;49.930;8.606;2023-12-20T03:33:48;2.40;;;2.40;;
4808;SDS011;2418;49.930;8.606;2023-12-20T03:36:15;3.08;;;2.88;;
4808;SDS011;2418;49.930;8.606;2023-12-20T03:38:41;3.03;;;2.83;;
4808;SDS011;2418;49.930;8.606;2023-12-20T03:41:07;2.75;;;2.55;;
4808;SDS011;2418;49.930;8.606;2023-12-20T03:43:33;2.53;;;2.42;;
4808;SDS011;2418;49.930;8.606;2023-12-20T03:45:59;2.60;;;2.40;;
4808;SDS011;2418;49.930;8.606;2023-12-20T03:48:26;2.47;;;2.38;;
4808;SDS011;2418;49.930;8.606;2023-12-20T03:50:52;2.80;;;2.70;;
4808;SDS011;2418;49.930;8.606;2023-12-20T03:53:18;2.67;;;2.60;;
4808;SDS011;2418;49.930;8.606;2023-12-20T03:55:44;2.88;;;2.78;;
4808;SDS011;2418;49.930;8.606;2023-12-20T03:58:10;5.23;;;2.63;;
4808;SDS011;2418;49.930;8.606;2023-12-20T04:00:36;2.70;;;2.50;;
4808;SDS011;2418;49.930;8.606;2023-12-20T04:03:02;2.97;;;2.77;;
4808;SDS011;2418;49.930;8.606;2023-12-20T04:05:28;2.95;;;2.75;;
4808;SDS011;2418;49.930;8.606;2023-12-20T04:07:54;2.60;;;2.60;;
4808;SDS011;2418;49.930;8.606;2023-12-20T04:10:20;3.17;;;3.08;;
4808;SDS011;2418;49.930;8.606;2023-12-20T04:12:46;2.80;;;2.80;;
4808;SDS011;2418;49.930;8.606;2023-12-20T04:15:12;2.53;;;2.50;;
4808;SDS011;2418;49.930;8.606;2023-12-20T04:17:37;3.00;;;2.70;;
4808;SDS011;2418;49.930;8.606;2023-12-20T04:20:04;3.30;;;3.10;;
4808;SDS011;2418;49.930;8.606;2023-12-20T04:22:30;2.60;;;2.50;;
4808;SDS011;2418;49.930;8.606;2023-12-20T04:24:56;2.78;;;2.67;;
4808;SDS011;2418;49.930;8.606;2023-12-20T04:27:22;2.70;;;2.60;;
4808;SDS011;2418;49.930;8.606;2023-12-20T04:29:48;2.88;;;2.78;;
4808;SDS011;2418;49.930;8.606;2023-12-20T04:32:14;2.53;;;2.42;;
4808;SDS011;2418;49.930;8.606;2023-12-20T04:34:40;2.50;;;2.50;;
4808;SDS011;2418;49.930;8.606;2023-12-20T04:37:06;2.65;;;2.55;;
4808;SDS011;2418;49.930;8.606;2023-12-20T04:39:32;3.70;;;2.75;;
4808;SDS011;2418;49.930;8.606;2023-12-20T04:41:58;3.05;;;2.95;;
4808;SDS011;2418;49.930;8.606;2023-12-20T04:44:24;2.70;;;2.60;;
4808;SDS011;2418;49.930;8.606;2023-12-20T04:46:51;3.05;;;2.95;;
4808;SDS011;2418;49.930;8.606;2023-12-20T04:49:17;3.10;;;3.00;;
4808;SDS011;2418;49.930;8.606;2023-12-20T04:51:43;3.10;;;3.00;;
4808;SDS011;2418;49.930;8.606;2023-12-20T04:54:09;2.80;;;2.70;;
4808;SDS011;2418;49.930;8.606;2023-12-20T04:56:35;3.25;;;3.05;;
4808;SDS011;2418;49.930;8.606;2023-12-20T04:59:01;3.10;;;3.00;;
4808;SDS011;2418;49.930;8.606;2023-12-20T05:01:27;3.13;;;2.93;;
4808;SDS011;2418;49.930;8.606;2023-12-20T05:03:53;2.72;;;2.63;;
4808;SDS011;2418;49.930;8.606;2023-12-20T05:06:19;3.10;;;3.00;;
4808;SDS011;2418;49.930;8.606;2023-12-20T05:08:45;2.83;;;2.72;;
4808;SDS011;2418;49.930;8.606;2023-12-20T05:11:11;3.00;;;2.90;;
4808;SDS011;2418;49.930;8.606;2023-12-20T05:13:39;2.95;;;2.85;;
4808;SDS011;2418;49.930;8.606;2023-12-20T05:16:05;3.15;;;2.85;;
4808;SDS011;2418;49.930;8.606;2023-12-20T05:18:31;3.10;;;3.00;;
4808;SDS011;2418;49.930;8.606;2023-12-20T05:20:57;2.78;;;2.67;;
4808;SDS011;2418;49.930;8.606;2023-12-20T05:23:23;2.92;;;2.83;;
4808;SDS011;2418;49.930;8.606;2023-12-20T05:25:49;2.75;;;2.65;;
4808;SDS011;2418;49.930;8.606;2023-12-20T05:28:15;2.67;;;2.67;;
4808;SDS011;2418;49.930;8.606;2023-12-20T05:30:41;2.13;;;2.13;;
4808;SDS011;2418;49.930;8.606;2023-12-20T05:33:06;2.97;;;2.78;;
4808;SDS011;2418;49.930;8.606;2023-12-20T05:35:33;2.70;;;2.50;;
4808;SDS011;2418;49.930;8.606;2023-12-20T05:37:59;2.55;;;2.45;;
4808;SDS011;2418;49.930;8.606;2023-12-20T05:40:25;2.60;;;2.00;;
4808;SDS011;2418;49.930;8.606;2023-12-20T05:42:50;4.32;;;2.20;;
4808;SDS011;2418;49.930;8.606;2023-12-20T05:45:16;3.50;;;2.20;;
4808;SDS011;2418;49.930;8.606;2023-12-20T05:47:43;2.40;;;2.30;;
4808;SDS011;2418;49.930;8.606;2023-12-20T05:50:09;2.33;;;2.13;;
4808;SDS011;2418;49.930;8.606;2023-12-20T05:52:35;3.30;;;2.70;;
4808;SDS011;2418;49.930;8.606;2023-12-20T05:55:01;8.83;;;7.10;;
4808;SDS011;2418;49.930;8.606;2023-12-20T05:57:27;20.00;;;11.80;;
4808;SDS011;2418;49.930;8.606;2023-12-20T05:59:53;10.32;;;7.50;;
4808;SDS011;2418;49.930;8.606;2023-12-20T06:02:19;6.65;;;5.20;;
4808;SDS011;2418;49.930;8.606;2023-12-20T06:04:45;3.37;;;3.17;;
4808;SDS011;2418;49.930;8.606;2023-12-20T06:07:11;3.20;;;2.72;;
4808;SDS011;2418;49.930;8.606;2023-12-20T06:09:38;2.80;;;2.50;;
4808;SDS011;2418;49.930;8.606;2023-12-20T06:12:04;5.67;;;2.30;;
4808;SDS011;2418;49.930;8.606;2023-12-20T06:14:30;3.35;;;2.28;;
4808;SDS011;2418;49.930;8.606;2023-12-20T06:16:57;2.90;;;2.00;;
4808;SDS011;2418;49.930;8.606;2023-12-20T06:19:24;3.17;;;2.40;;
4808;SDS011;2418;49.930;8.606;2023-12-20T06:21:50;3.22;;;2.42;;
4808;SDS011;2418;49.930;8.606;2023-12-20T06:24:16;8.30;;;2.60;;
4808;SDS011;2418;49.930;8.606;2023-12-20T06:26:42;4.47;;;2.70;;
4808;SDS011;2418;49.930;8.606;2023-12-20T06:29:08;4.60;;;2.90;;
4808;SDS011;2418;49.930;8.606;2023-12-20T06:31:34;6.90;;;3.08;;
4808;SDS011;2418;49.930;8.606;2023-12-20T06:34:00;5.20;;;2.90;;
4808;SDS011;2418;49.930;8.606;2023-12-20T06:36:26;6.43;;;2.50;;
4808;SDS011;2418;49.930;8.606;2023-12-20T06:38:52;3.27;;;3.07;;
4808;SDS011;2418;49.930;8.606;2023-12-20T06:41:18;4.18;;;2.63;;
4808;SDS011;2418;49.930;8.606;2023-12-20T06:43:44;5.43;;;3.50;;
4808;SDS011;2418;49.930;8.606;2023-12-20T06:46:11;4.63;;;3.30;;
4808;SDS011;2418;49.930;8.606;2023-12-20T06:48:38;5.30;;;3.20;;
4808;SDS011;2418;49.930;8.606;2023-12-20T06:51:05;7.03;;;3.20;;
4808;SDS011;2418;49.930;8.606;2023-12-20T06:53:31;3.13;;;2.70;;
4808;SDS011;2418;49.930;8.606;2023-12-20T06:55:57;4.40;;;2.42;;
4808;SDS011;2418;49.930;8.606;2023-12-20T06:58:23;6.90;;;3.67;;
4808;SDS011;2418;49.930;8.606;2023-12-20T07:00:50;4.20;;;3.60;;
4808;SDS011;2418;49.930;8.606;2023-12-20T07:03:16;4.90;;;3.30;;
4808;SDS011;2418;49.930;8.606;2023-12-20T07:05:43;3.50;;;3.20;;
4808;SDS011;2418;49.930;8.606;2023-12-20T07:08:09;4.83;;;2.90;;
4808;SDS011;2418;49.930;8.606;2023-12-20T07:10:35;4.45;;;3.60;;
4808;SDS011;2418;49.930;8.606;2023-12-20T07:13:02;6.97;;;3.05;;
4808;SDS011;2418;49.930;8.606;2023-12-20T07:15:28;3.90;;;2.95;;
4808;SDS011;2418;49.930;8.606;2023-12-20T07:17:54;7.00;;;3.35;;
4808;SDS011;2418;49.930;8.606;2023-12-20T07:20:20;6.10;;;3.47;;
4808;SDS011;2418;49.930;8.606;2023-12-20T07:22:46;6.43;;;3.45;;
4808;SDS011;2418;49.930;8.606;2023-12-20T07:25:12;5.47;;;3.35;;
4808;SDS011;2418;49.930;8.606;2023-12-20T07:27:38;4.47;;;3.73;;
4808;SDS011;2418;49.930;8.606;2023-12-20T07:30:04;4.70;;;3.60;;
4808;SDS011;2418;49.930;8.606;2023-12-20T07:32:30;3.72;;;2.95;;
4808;SDS011;2418;49.930;8.606;2023-12-20T07:34:57;3.20;;;3.00;;
4808;SDS011;2418;49.930;8.606;2023-12-20T07:37:23;3.85;;;3.55;;
4808;SDS011;2418;49.930;8.606;2023-12-20T07:39:49;6.85;;;3.97;;
4808;SDS011;2418;49.930;8.606;2023-12-20T07:42:15;5.20;;;4.75;;
4808;SDS011;2418;49.930;8.606;2023-12-20T07:44:41;8.63;;;4.00;;
4808;SDS011;2418;49.930;8.606;2023-12-20T07:47:06;5.43;;;3.33;;
4808;SDS011;2418;49.930;8.606;2023-12-20T07:49:33;9.50;;;3.05;;
4808;SDS011;2418;49.930;8.606;2023-12-20T07:51:59;2.20;;;2.10;;
4808;SDS011;2418;49.930;8.606;2023-12-20T07:54:25;2.50;;;2.30;;
4808;SDS011;2418;49.930;8.606;2023-12-20T07:56:50;7.40;;;2.00;;
4808;SDS011;2418;49.930;8.606;2023-12-20T07:59:16;7.40;;;2.15;;
4808;SDS011;2418;49.930;8.606;2023-12-20T08:01:42;10.83;;;2.40;;
4808;SDS011;2418;49.930;8.606;2023-12-20T08:04:08;10.85;;;2.78;;
4808;SDS011;2418;49.930;8.606;2023-12-20T08:06:35;2.00;;;1.70;;
4808;SDS011;2418;49.930;8.606;2023-12-20T08:09:01;4.40;;;1.70;;
4808;SDS011;2418;49.930;8.606;2023-12-20T08:11:27;2.90;;;1.70;;
4808;SDS011;2418;49.930;8.606;2023-12-20T08:13:53;4.97;;;2.10;;
4808;SDS011;2418;49.930;8.606;2023-12-20T08:16:19;3.22;;;1.90;;
4808;SDS011;2418;49.930;8.606;2023-12-20T08:18:45;6.97;;;1.88;;
4808;SDS011;2418;49.930;8.606;2023-12-20T08:21:11;3.22;;;1.67;;
4808;SDS011;2418;49.930;8.606;2023-12-20T08:23:37;5.63;;;2.20;;
4808;SDS011;2418;49.930;8.606;2023-12-20T08:26:07;7.28;;;2.47;;
4808;SDS011;2418;49.930;8.606;2023-12-20T08:28:34;9.40;;;4.10;;
4808;SDS011;2418;49.930;8.606;2023-12-20T08:31:02;4.15;;;3.03;;
4808;SDS011;2418;49.930;8.606;2023-12-20T08:33:28;2.40;;;2.30;;
4808;SDS011;2418;49.930;8.606;2023-12-20T08:35:54;2.37;;;2.23;;
4808;SDS011;2418;49.930;8.606;2023-12-20T08:38:20;4.90;;;3.80;;
4808;SDS011;2418;49.930;8.606;2023-12-20T08:40:46;3.97;;;2.40;;
4808;SDS011;2418;49.930;8.606;2023-12-20T08:43:11;7.30;;;1.77;;
4808;SDS011;2418;49.930;8.606;2023-12-20T08:45:38;4.43;;;1.35;;
4808;SDS011;2418;49.930;8.606;2023-12-20T08:48:04;3.30;;;2.00;;
4808;SDS011;2418;49.930;8.606;2023-12-20T08:50:30;3.40;;;1.50;;
4808;SDS011;2418;49.930;8.606;2023-12-20T08:52:56;2.50;;;1.40;;
4808;SDS011;2418;49.930;8.606;2023-12-20T08:55:22;3.95;;;1.58;;
4808;SDS011;2418;49.930;8.606;2023-12-20T08:57:48;4.50;;;1.90;;
4808;SDS011;2418;49.930;8.606;2023-12-20T09:00:15;6.30;;;1.90;;
4808;SDS011;2418;49.930;8.606;2023-12-20T09:02:41;5.05;;;3.03;;
4808;SDS011;2418;49.930;8.606;2023-12-20T09:05:07;12.88;;;5.93;;
4808;SDS011;2418;49.930;8.606;2023-12-20T09:07:35;5.20;;;3.10;;
4808;SDS011;2418;49.930;8.606;2023-12-20T09:10:01;2.60;;;2.40;;
4808;SDS011;2418;49.930;8.606;2023-12-20T09:12:27;7.60;;;2.40;;
4808;SDS011;2418;49.930;8.606;2023-12-20T09:14:54;7.57;;;2.70;;
4808;SDS011;2418;49.930;8.606;2023-12-20T09:17:20;3.42;;;2.63;;
4808;SDS011;2418;49.930;8.606;2023-12-20T09:19:48;5.07;;;2.78;;
4808;SDS011;2418;49.930;8.606;2023-12-20T09:22:14;4.40;;;1.90;;
4808;SDS011;2418;49.930;8.606;2023-12-20T09:24:40;4.25;;;2.53;;
4808;SDS011;2418;49.930;8.606;2023-12-20T09:27:06;2.20;;;1.85;;
4808;SDS011;2418;49.930;8.606;2023-12-20T09:29:32;6.68;;;2.35;;
4808;SDS011;2418;49.930;8.606;2023-12-20T09:31:58;4.15;;;2.50;;
4808;SDS011;2418;49.930;8.606;2023-12-20T09:34:24;7.03;;;2.40;;
4808;SDS011;2418;49.930;8.606;2023-12-20T09:36:51;4.20;;;2.67;;
4808;SDS011;2418;49.930;8.606;2023-12-20T09:39:17;7.20;;;2.58;;
4808;SDS011;2418;49.930;8.606;2023-12-20T09:42:05;2.40;;;2.00;;
4808;SDS011;2418;49.930;8.606;2023-12-20T09:44:32;3.70;;;1.63;;
4808;SDS011;2418;49.930;8.606;2023-12-20T09:47:02;2.45;;;2.03;;
4808;SDS011;2418;49.930;8.606;2023-12-20T09:49:28;5.90;;;2.55;;
4808;SDS011;2418;49.930;8.606;2023-12-20T09:51:55;3.77;;;2.00;;
4808;SDS011;2418;49.930;8.606;2023-12-20T09:54:22;2.90;;;2.38;;
4808;SDS011;2418;49.930;8.606;2023-12-20T09:56:48;3.75;;;2.45;;
4808;SDS011;2418;49.930;8.606;2023-12-20T09:59:14;5.30;;;2.60;;
4808;SDS011;2418;49.930;8.606;2023-12-20T10:01:41;7.45;;;2.47;;
4808;SDS011;2418;49.930;8.606;2023-12-20T10:04:07;9.10;;;2.70;;
4808;SDS011;2418;49.930;8.606;2023-12-20T10:06:37;5.40;;;2.55;;
4808;SDS011;2418;49.930;8.606;2023-12-20T10:09:03;5.13;;;2.60;;
4808;SDS011;2418;49.930;8.606;2023-12-20T10:11:29;4.47;;;2.55;;
4808;SDS011;2418;49.930;8.606;2023-12-20T10:13:58;2.47;;;2.28;;
4808;SDS011;2418;49.930;8.606;2023-12-20T10:16:26;5.15;;;2.40;;
4808;SDS011;2418;49.930;8.606;2023-12-20T10:18:52;5.03;;;2.15;;
4808;SDS011;2418;49.930;8.606;2023-12-20T10:21:18;7.93;;;2.53;;
4808;SDS011;2418;49.930;8.606;2023-12-20T10:23:45;6.35;;;2.78;;
4808;SDS011;2418;49.930;8.606;2023-12-20T10:26:18;5.67;;;3.83;;
4808;SDS011;2418;49.930;8.606;2023-12-20T10:28:46;11.90;;;4.40;;
4808;SDS011;2418;49.930;8.606;2023-12-20T10:31:25;8.60;;;2.50;;
4808;SDS011;2418;49.930;8.606;2023-12-20T10:33:57;6.90;;;4.72;;
4808;SDS011;2418;49.930;8.606;2023-12-20T10:36:24;5.47;;;4.45;;
4808;SDS011;2418;49.930;8.606;2023-12-20T10:38:52;3.07;;;1.73;;
4808;SDS011;2418;49.930;8.606;2023-12-20T10:41:19;6.83;;;2.57;;
4808;SDS011;2418;49.930;8.606;2023-12-20T10:43:49;3.23;;;2.77;;
4808;SDS011;2418;49.930;8.606;2023-12-20T10:46:15;7.13;;;5.57;;
4808;SDS011;2418;49.930;8.606;2023-12-20T10:48:41;5.90;;;3.40;;
4808;SDS011;2418;49.930;8.606;2023-12-20T10:51:09;4.93;;;3.22;;
4808;SDS011;2418;49.930;8.606;2023-12-20T10:53:35;5.88;;;3.90;;
4808;SDS011;2418;49.930;8.606;2023-12-20T10:56:02;8.50;;;3.20;;
4808;SDS011;2418;49.930;8.606;2023-12-20T10:58:28;5.38;;;2.30;;
4808;SDS011;2418;49.930;8.606;2023-12-20T11:00:58;5.55;;;2.97;;
4808;SDS011;2418;49.930;8.606;2023-12-20T11:03:28;6.70;;;1.98;;
4808;SDS011;2418;49.930;8.606;2023-12-20T11:11:12;5.20;;;2.78;;
4808;SDS011;2418;49.930;8.606;2023-12-20T11:13:41;9.65;;;5.65;;
4808;SDS011;2418;49.930;8.606;2023-12-20T11:16:09;7.20;;;2.67;;
4808;SDS011;2418;49.930;8.606;2023-12-20T11:18:35;9.18;;;3.45;;
4808;SDS011;2418;49.930;8.606;2023-12-20T11:21:02;6.35;;;2.20;;
4808;SDS011;2418;49.930;8.606;2023-12-20T11:23:29;4.93;;;2.40;;
4808;SDS011;2418;49.930;8.606;2023-12-20T11:25:56;4.82;;;2.05;;
4808;SDS011;2418;49.930;8.606;2023-12-20T11:28:25;8.50;;;2.40;;
4808;SDS011;2418;49.930;8.606;2023-12-20T11:30:52;3.03;;;1.50;;
4808;SDS011;2418;49.930;8.606;2023-12-20T11:33:22;7.60;;;1.90;;
4808;SDS011;2418;49.930;8.606;2023-12-20T11:35:48;6.80;;;1.90;;
4808;SDS011;2418;49.930;8.606;2023-12-20T11:38:14;4.90;;;1.60;;
4808;SDS011;2418;49.930;8.606;2023-12-20T11:40:41;2.53;;;1.20;;
4808;SDS011;2418;49.930;8.606;2023-12-20T11:43:07;6.28;;;1.60;;
4808;SDS011;2418;49.930;8.606;2023-12-20T11:45:34;3.72;;;1.65;;
4808;SDS011;2418;49.930;8.606;2023-12-20T11:48:03;2.55;;;1.20;;
4808;SDS011;2418;49.930;8.606;2023-12-20T11:50:30;4.90;;;1.40;;
4808;SDS011;2418;49.930;8.606;2023-12-20T11:52:56;5.45;;;1.50;;
4808;SDS011;2418;49.930;8.606;2023-12-20T11:55:23;6.40;;;2.00;;
4808;SDS011;2418;49.930;8.606;2023-12-20T11:57:49;3.03;;;1.70;;
4808;SDS011;2418;49.930;8.606;2023-12-20T12:00:16;4.90;;;1.60;;
4808;SDS011;2418;49.930;8.606;2023-12-20T12:02:42;4.30;;;2.00;;
4808;SDS011;2418;49.930;8.606;2023-12-20T12:05:08;4.22;;;1.50;;
4808;SDS011;2418;49.930;8.606;2023-12-20T12:07:34;6.75;;;1.90;;
4808;SDS011;2418;49.930;8.606;2023-12-20T12:10:01;10.20;;;2.10;;
4808;SDS011;2418;49.930;8.606;2023-12-20T12:12:28;4.75;;;1.70;;
4808;SDS011;2418;49.930;8.606;2023-12-20T12:14:55;2.90;;;1.60;;
4808;SDS011;2418;49.930;8.606;2023-12-20T12:17:22;1.67;;;1.58;;
4808;SDS011;2418;49.930;8.606;2023-12-20T12:19:48;4.22;;;1.17;;
4808;SDS011;2418;49.930;8.606;2023-12-20T12:22:14;3.80;;;1.77;;
4808;SDS011;2418;49.930;8.606;2023-12-20T12:24:42;6.20;;;1.80;;
4808;SDS011;2418;49.930;8.606;2023-12-20T12:27:08;4.80;;;1.90;;
4808;SDS011;2418;49.930;8.606;2023-12-20T12:29:34;2.22;;;1.73;;
4808;SDS011;2418;49.930;8.606;2023-12-20T12:32:01;7.50;;;2.20;;
4808;SDS011;2418;49.930;8.606;2023-12-20T12:34:27;4.65;;;1.70;;
4808;SDS011;2418;49.930;8.606;2023-12-20T12:36:53;5.28;;;2.00;;
4808;SDS011;2418;49.930;8.606;2023-12-20T12:39:19;2.50;;;1.60;;
4808;SDS011;2418;49.930;8.606;2023-12-20T12:41:45;4.28;;;1.50;;
4808;SDS011;2418;49.930;8.606;2023-12-20T12:44:11;4.23;;;1.77;;
4808;SDS011;2418;49.930;8.606;2023-12-20T12:46:37;2.40;;;2.00;;
4808;SDS011;2418;49.930;8.606;2023-12-20T12:49:03;8.25;;;1.95;;
4808;SDS011;2418;49.930;8.606;2023-12-20T12:51:29;9.45;;;2.60;;
4808;SDS011;2418;49.930;8.606;2023-12-20T12:53:56;3.80;;;1.90;;
4808;SDS011;2418;49.930;8.606;2023-12-20T12:56:22;7.72;;;2.22;;
4808;SDS011;2418;49.930;8.606;2023-12-20T12:58:48;5.22;;;1.90;;
4808;SDS011;2418;49.930;8.606;2023-12-20T13:01:14;4.97;;;1.90;;
4808;SDS011;2418;49.930;8.606;2023-12-20T13:03:40;6.60;;;2.05;;
4808;SDS011;2418;49.930;8.606;2023-12-20T13:06:06;4.30;;;2.30;;
4808;SDS011;2418;49.930;8.606;2023-12-20T13:08:33;6.72;;;2.80;;
4808;SDS011;2418;49.930;8.606;2023-12-20T13:10:59;3.80;;;2.47;;
4808;SDS011;2418;49.930;8.606;2023-12-20T13:13:29;6.18;;;2.60;;
4808;SDS011;2418;49.930;8.606;2023-12-20T13:15:55;10.75;;;3.90;;
4808;SDS011;2418;49.930;8.606;2023-12-20T13:18:24;5.00;;;2.50;;
4808;SDS011;2418;49.930;8.606;2023-12-20T13:20:50;6.40;;;1.90;;
4808;SDS011;2418;49.930;8.606;2023-12-20T13:23:16;7.95;;;2.88;;
4808;SDS011;2418;49.930;8.606;2023-12-20T13:25:43;7.45;;;2.00;;
4808;SDS011;2418;49.930;8.606;2023-12-20T13:28:10;6.80;;;2.60;;
4808;SDS011;2418;49.930;8.606;2023-12-20T13:30:37;5.55;;;2.58;;
4808;SDS011;2418;49.930;8.606;2023-12-20T13:33:03;8.50;;;2.30;;
4808;SDS011;2418;49.930;8.606;2023-12-20T13:35:30;3.10;;;1.95;;
4808;SDS011;2418;49.930;8.606;2023-12-20T13:37:56;4.47;;;2.40;;
4808;SDS011;2418;49.930;8.606;2023-12-20T13:40:22;10.05;;;2.47;;
4808;SDS011;2418;49.930;8.606;2023-12-20T13:42:48;5.40;;;2.10;;
4808;SDS011;2418;49.930;8.606;2023-12-20T13:45:15;4.20;;;2.20;;
4808;SDS011;2418;49.930;8.606;2023-12-20T13:47:41;2.40;;;1.70;;
4808;SDS011;2418;49.930;8.606;2023-12-20T13:50:07;4.97;;;1.80;;
4808;SDS011;2418;49.930;8.606;2023-12-20T13:52:33;5.05;;;2.22;;
4808;SDS011;2418;49.930;8.606;2023-12-20T13:54:59;5.80;;;1.90;;
4808;SDS011;2418;49.930;8.606;2023-12-20T13:57:25;5.22;;;1.85;;
4808;SDS011;2418;49.930;8.606;2023-12-20T13:59:51;6.38;;;2.00;;
4808;SDS011;2418;49.930;8.606;2023-12-20T14:02:17;4.60;;;1.92;;
4808;SDS011;2418;49.930;8.606;2023-12-20T14:04:43;4.47;;;1.60;;
4808;SDS011;2418;49.930;8.606;2023-12-20T14:07:09;5.97;;;2.20;;
4808;SDS011;2418;49.930;8.606;2023-12-20T14:09:36;6.25;;;1.70;;
4808;SDS011;2418;49.930;8.606;2023-12-20T14:12:02;3.35;;;1.95;;
4808;SDS011;2418;49.930;8.606;2023-12-20T14:14:28;5.80;;;1.90;;
4808;SDS011;2418;49.930;8.606;2023-12-20T14:16:54;5.32;;;2.00;;
4808;SDS011;2418;49.930;8.606;2023-12-20T14:19:20;6.57;;;5.13;;
4808;SDS011;2418;49.930;8.606;2023-12-20T14:21:46;6.93;;;2.13;;
4808;SDS011;2418;49.930;8.606;2023-12-20T14:24:13;3.35;;;2.67;;
4808;SDS011;2418;49.930;8.606;2023-12-20T14:26:40;5.90;;;2.30;;
4808;SDS011;2418;49.930;8.606;2023-12-20T14:29:06;9.55;;;2.83;;
4808;SDS011;2418;49.930;8.606;2023-12-20T14:31:32;5.82;;;2.35;;
4808;SDS011;2418;49.930;8.606;2023-12-20T14:33:58;2.38;;;1.70;;
4808;SDS011;2418;49.930;8.606;2023-12-20T14:36:25;8.07;;;1.98;;
4808;SDS011;2418;49.930;8.606;2023-12-20T14:38:51;4.95;;;1.70;;
4808;SDS011;2418;49.930;8.606;2023-12-20T14:41:17;8.32;;;2.00;;
4808;SDS011;2418;49.930;8.606;2023-12-20T14:43:44;6.25;;;2.60;;
4808;SDS011;2418;49.930;8.606;2023-12-20T14:46:10;6.00;;;2.47;;
4808;SDS011;2418;49.930;8.606;2023-12-20T14:48:36;9.60;;;2.67;;
4808;SDS011;2418;49.930;8.606;2023-12-20T14:51:02;12.00;;;2.07;;
4808;SDS011;2418;49.930;8.606;2023-12-20T14:53:27;5.35;;;2.58;;
4808;SDS011;2418;49.930;8.606;2023-12-20T14:55:53;6.20;;;2.65;;
4808;SDS011;2418;49.930;8.606;2023-12-20T14:58:19;4.05;;;1.70;;
4808;SDS011;2418;49.930;8.606;2023-12-20T15:00:45;2.95;;;1.80;;
4808;SDS011;2418;49.930;8.606;2023-12-20T15:03:11;1.58;;;1.30;;
4808;SDS011;2418;49.930;8.606;2023-12-20T15:05:38;3.30;;;1.40;;
4808;SDS011;2418;49.930;8.606;2023-12-20T15:08:04;5.03;;;1.98;;
4808;SDS011;2418;49.930;8.606;2023-12-20T15:10:30;6.75;;;1.38;;
4808;SDS011;2418;49.930;8.606;2023-12-20T15:12:56;5.10;;;1.60;;
4808;SDS011;2418;49.930;8.606;2023-12-20T15:15:22;4.03;;;1.20;;